sensor_id;sensor_type;location;lat;lon;timestamp;temperature;humidity
23544;DHT22;11950;51.230;4.012;2023-12-07T00:01:12;3.60;99.90
23544;DHT22;11950;51.230;4.012;2023-12-07T00:03:38;3.60;99.90
23544;DHT22;11950;51.230;4.012;2023-12-07T00:06:04;3.60;99.90
23544;DHT22;11950;51.230;4.012;2023-12-07T00:08:31;3.60;99.90
23544;DHT22;11950;51.230;4.012;2023-12-07T00:10:57;3.70;99.90
23544;DHT22;11950;51.230;4.012;2023-12-07T00:13:23;3.60;99.90
23544;DHT22;11950;51.230;4.012;2023-12-07T00:15:49;3.60;99.90
23544;DHT22;11950;51.230;4.012;2023-12-07T00:18:15;3.60;99.90
23544;DHT22;11950;51.230;4.012;2023-12-07T00:20:42;3.60;99.90
23544;DHT22;11950;51.230;4.012;2023-12-07T00:23:08;3.60;99.90
23544;DHT22;11950;51.230;4.012;2023-12-07T00:25:34;3.70;99.90
23544;DHT22;11950;51.230;4.012;2023-12-07T00:28:00;3.70;99.90
23544;DHT22;11950;51.230;4.012;2023-12-07T00:30:27;3.70;99.90
23544;DHT22;11950;51.230;4.012;2023-12-07T00:32:53;3.70;99.90
23544;DHT22;11950;51.230;4.012;2023-12-07T00:35:19;3.60;99.90
23544;DHT22;11950;51.230;4.012;2023-12-07T00:37:48;3.70;99.90
23544;DHT22;11950;51.230;4.012;2023-12-07T00:40:14;3.70;99.90
23544;DHT22;11950;51.230;4.012;2023-12-07T00:42:41;3.70;99.90
23544;DHT22;11950;51.230;4.012;2023-12-07T00:45:08;3.70;99.90
23544;DHT22;11950;51.230;4.012;2023-12-07T00:47:34;3.70;99.90
23544;DHT22;11950;51.230;4.012;2023-12-07T00:50:01;3.70;99.90
23544;DHT22;11950;51.230;4.012;2023-12-07T00:52:27;3.80;99.90
23544;DHT22;11950;51.230;4.012;2023-12-07T00:54:54;3.80;99.90
23544;DHT22;11950;51.230;4.012;2023-12-07T00:57:20;3.80;99.90
23544;DHT22;11950;51.230;4.012;2023-12-07T00:59:46;3.80;99.90
23544;DHT22;11950;51.230;4.012;2023-12-07T01:02:12;3.80;99.90
23544;DHT22;11950;51.230;4.012;2023-12-07T01:04:39;3.90;99.90
23544;DHT22;11950;51.230;4.012;2023-12-07T01:07:05;3.90;99.90
23544;DHT22;11950;51.230;4.012;2023-12-07T01:09:33;3.90;99.90
23544;DHT22;11950;51.230;4.012;2023-12-07T01:11:59;4.00;99.90
23544;DHT22;11950;51.230;4.012;2023-12-07T01:14:25;4.00;99.90
23544;DHT22;11950;51.230;4.012;2023-12-07T01:16:51;4.00;99.90
23544;DHT22;11950;51.230;4.012;2023-12-07T01:19:17;4.00;99.90
23544;DHT22;11950;51.230;4.012;2023-12-07T01:21:44;4.10;99.90
23544;DHT22;11950;51.230;4.012;2023-12-07T01:24:10;4.10;99.90
23544;DHT22;11950;51.230;4.012;2023-12-07T01:26:36;4.10;99.90
23544;DHT22;11950;51.230;4.012;2023-12-07T01:29:02;4.10;99.90
23544;DHT22;11950;51.230;4.012;2023-12-07T01:31:29;4.20;99.90
23544;DHT22;11950;51.230;4.012;2023-12-07T01:33:56;4.20;99.90
23544;DHT22;11950;51.230;4.012;2023-12-07T01:36:22;4.20;99.90
23544;DHT22;11950;51.230;4.012;2023-12-07T01:38:49;4.20;99.90
23544;DHT22;11950;51.230;4.012;2023-12-07T01:41:15;4.20;99.90
23544;DHT22;11950;51.230;4.012;2023-12-07T01:43:47;4.30;99.90
23544;DHT22;11950;51.230;4.012;2023-12-07T01:46:15;4.30;99.90
23544;DHT22;11950;51.230;4.012;2023-12-07T01:48:42;4.30;99.90
23544;DHT22;11950;51.230;4.012;2023-12-07T01:51:09;4.40;99.90
23544;DHT22;11950;51.230;4.012;2023-12-07T01:53:38;4.40;99.90
23544;DHT22;11950;51.230;4.012;2023-12-07T01:56:05;4.50;99.90
23544;DHT22;11950;51.230;4.012;2023-12-07T01:58:33;4.50;99.90
23544;DHT22;11950;51.230;4.012;2023-12-07T02:01:01;4.50;99.90
23544;DHT22;11950;51.230;4.012;2023-12-07T02:03:27;4.50;99.90
23544;DHT22;11950;51.230;4.012;2023-12-07T02:05:57;4.50;99.90
23544;DHT22;11950;51.230;4.012;2023-12-07T02:08:23;4.60;99.90
23544;DHT22;11950;51.230;4.012;2023-12-07T02:10:50;4.60;99.90
23544;DHT22;11950;51.230;4.012;2023-12-07T02:13:20;4.70;99.90
23544;DHT22;11950;51.230;4.012;2023-12-07T02:15:47;4.70;99.90
23544;DHT22;11950;51.230;4.012;2023-12-07T02:18:28;4.70;99.90
23544;DHT22;11950;51.230;4.012;2023-12-07T02:23:43;4.80;99.90
23544;DHT22;11950;51.230;4.012;2023-12-07T02:26:11;4.80;99.90
23544;DHT22;11950;51.230;4.012;2023-12-07T02:28:39;4.80;99.90
23544;DHT22;11950;51.230;4.012;2023-12-07T02:31:05;4.80;99.90
23544;DHT22;11950;51.230;4.012;2023-12-07T02:33:32;4.80;99.90
23544;DHT22;11950;51.230;4.012;2023-12-07T02:35:58;4.80;99.90
23544;DHT22;11950;51.230;4.012;2023-12-07T02:38:26;4.90;99.90
23544;DHT22;11950;51.230;4.012;2023-12-07T02:40:55;4.90;99.90
23544;DHT22;11950;51.230;4.012;2023-12-07T02:43:21;4.90;99.90
23544;DHT22;11950;51.230;4.012;2023-12-07T02:45:48;4.90;99.90
23544;DHT22;11950;51.230;4.012;2023-12-07T02:48:14;5.00;99.90
23544;DHT22;11950;51.230;4.012;2023-12-07T02:50:43;5.00;99.90
23544;DHT22;11950;51.230;4.012;2023-12-07T02:53:09;5.00;99.90
23544;DHT22;11950;51.230;4.012;2023-12-07T02:55:35;5.00;99.90
23544;DHT22;11950;51.230;4.012;2023-12-07T02:58:02;5.10;99.90
23544;DHT22;11950;51.230;4.012;2023-12-07T03:00:28;5.10;99.90
23544;DHT22;11950;51.230;4.012;2023-12-07T03:02:54;5.10;99.90
23544;DHT22;11950;51.230;4.012;2023-12-07T03:05:20;5.10;99.90
23544;DHT22;11950;51.230;4.012;2023-12-07T03:07:49;5.10;99.90
23544;DHT22;11950;51.230;4.012;2023-12-07T03:10:15;5.20;99.90
23544;DHT22;11950;51.230;4.012;2023-12-07T03:12:41;5.20;99.90
23544;DHT22;11950;51.230;4.012;2023-12-07T03:15:08;5.20;99.90
23544;DHT22;11950;51.230;4.012;2023-12-07T03:17:36;5.20;99.90
23544;DHT22;11950;51.230;4.012;2023-12-07T03:20:03;5.20;99.90
23544;DHT22;11950;51.230;4.012;2023-12-07T03:22:31;5.20;99.90
23544;DHT22;11950;51.230;4.012;2023-12-07T03:24:57;5.30;99.90
23544;DHT22;11950;51.230;4.012;2023-12-07T03:27:24;5.30;99.90
23544;DHT22;11950;51.230;4.012;2023-12-07T03:29:50;5.30;99.90
23544;DHT22;11950;51.230;4.012;2023-12-07T03:32:17;5.40;99.90
23544;DHT22;11950;51.230;4.012;2023-12-07T03:34:43;5.40;99.90
23544;DHT22;11950;51.230;4.012;2023-12-07T03:37:09;5.40;99.90
23544;DHT22;11950;51.230;4.012;2023-12-07T03:39:36;5.40;99.90
23544;DHT22;11950;51.230;4.012;2023-12-07T03:42:02;5.40;99.90
23544;DHT22;11950;51.230;4.012;2023-12-07T03:44:28;5.40;99.90
23544;DHT22;11950;51.230;4.012;2023-12-07T03:46:55;5.40;99.90
23544;DHT22;11950;51.230;4.012;2023-12-07T03:49:21;5.40;99.90
23544;DHT22;11950;51.230;4.012;2023-12-07T03:51:47;5.50;99.90
23544;DHT22;11950;51.230;4.012;2023-12-07T03:54:14;5.50;99.90
23544;DHT22;11950;51.230;4.012;2023-12-07T03:56:40;5.50;99.90
23544;DHT22;11950;51.230;4.012;2023-12-07T03:59:09;5.50;99.90
23544;DHT22;11950;51.230;4.012;2023-12-07T04:01:35;5.50;99.90
23544;DHT22;11950;51.230;4.012;2023-12-07T04:04:02;5.50;99.90
23544;DHT22;11950;51.230;4.012;2023-12-07T04:06:28;5.50;99.90
23544;DHT22;11950;51.230;4.012;2023-12-07T04:08:54;5.50;99.90
23544;DHT22;11950;51.230;4.012;2023-12-07T04:11:21;5.50;99.90
23544;DHT22;11950;51.230;4.012;2023-12-07T04:13:47;5.50;99.90
23544;DHT22;11950;51.230;4.012;2023-12-07T04:16:13;5.50;99.90
23544;DHT22;11950;51.230;4.012;2023-12-07T04:18:39;5.50;99.90
23544;DHT22;11950;51.230;4.012;2023-12-07T04:21:06;5.40;99.90
23544;DHT22;11950;51.230;4.012;2023-12-07T04:23:33;5.40;99.90
23544;DHT22;11950;51.230;4.012;2023-12-07T04:25:59;5.40;99.90
23544;DHT22;11950;51.230;4.012;2023-12-07T04:28:25;5.40;99.90
23544;DHT22;11950;51.230;4.012;2023-12-07T04:30:51;5.40;99.90
23544;DHT22;11950;51.230;4.012;2023-12-07T04:33:18;5.40;99.90
23544;DHT22;11950;51.230;4.012;2023-12-07T04:35:45;5.40;99.90
23544;DHT22;11950;51.230;4.012;2023-12-07T04:38:11;5.40;99.90
23544;DHT22;11950;51.230;4.012;2023-12-07T04:40:37;5.40;99.90
23544;DHT22;11950;51.230;4.012;2023-12-07T04:43:04;5.40;99.90
23544;DHT22;11950;51.230;4.012;2023-12-07T04:45:30;5.40;99.90
23544;DHT22;11950;51.230;4.012;2023-12-07T04:47:56;5.40;99.90
23544;DHT22;11950;51.230;4.012;2023-12-07T04:50:23;5.50;99.90
23544;DHT22;11950;51.230;4.012;2023-12-07T04:52:50;5.40;99.90
23544;DHT22;11950;51.230;4.012;2023-12-07T04:55:16;5.40;99.90
23544;DHT22;11950;51.230;4.012;2023-12-07T04:57:42;5.40;99.90
23544;DHT22;11950;51.230;4.012;2023-12-07T05:00:09;5.40;99.90
23544;DHT22;11950;51.230;4.012;2023-12-07T05:02:36;5.40;99.90
23544;DHT22;11950;51.230;4.012;2023-12-07T05:05:02;5.40;99.90
23544;DHT22;11950;51.230;4.012;2023-12-07T05:07:28;5.40;99.90
23544;DHT22;11950;51.230;4.012;2023-12-07T05:09:54;5.50;99.90
23544;DHT22;11950;51.230;4.012;2023-12-07T05:12:21;5.40;99.90
23544;DHT22;11950;51.230;4.012;2023-12-07T05:14:47;5.40;99.90
23544;DHT22;11950;51.230;4.012;2023-12-07T05:17:13;5.40;99.90
23544;DHT22;11950;51.230;4.012;2023-12-07T05:19:40;5.40;99.90
23544;DHT22;11950;51.230;4.012;2023-12-07T05:22:06;5.40;99.90
23544;DHT22;11950;51.230;4.012;2023-12-07T05:24:32;5.50;99.90
23544;DHT22;11950;51.230;4.012;2023-12-07T05:27:00;5.50;99.90
23544;DHT22;11950;51.230;4.012;2023-12-07T05:29:26;5.50;99.90
23544;DHT22;11950;51.230;4.012;2023-12-07T05:31:53;5.50;99.90
23544;DHT22;11950;51.230;4.012;2023-12-07T05:34:19;5.60;99.90
23544;DHT22;11950;51.230;4.012;2023-12-07T05:36:45;5.50;99.90
23544;DHT22;11950;51.230;4.012;2023-12-07T05:39:12;5.60;99.90
23544;DHT22;11950;51.230;4.012;2023-12-07T05:41:39;5.60;99.90
23544;DHT22;11950;51.230;4.012;2023-12-07T05:44:05;5.60;99.90
23544;DHT22;11950;51.230;4.012;2023-12-07T05:46:32;5.60;99.90
23544;DHT22;11950;51.230;4.012;2023-12-07T05:48:58;5.60;99.90
23544;DHT22;11950;51.230;4.012;2023-12-07T05:51:25;5.60;99.90
23544;DHT22;11950;51.230;4.012;2023-12-07T05:53:51;5.50;99.90
23544;DHT22;11950;51.230;4.012;2023-12-07T05:56:19;5.60;99.90
23544;DHT22;11950;51.230;4.012;2023-12-07T05:58:49;5.60;99.90
23544;DHT22;11950;51.230;4.012;2023-12-07T06:01:18;5.60;99.90
23544;DHT22;11950;51.230;4.012;2023-12-07T06:03:44;5.70;99.90
23544;DHT22;11950;51.230;4.012;2023-12-07T06:06:11;5.70;99.90
23544;DHT22;11950;51.230;4.012;2023-12-07T06:08:37;5.70;99.90
23544;DHT22;11950;51.230;4.012;2023-12-07T06:11:04;5.70;99.90
23544;DHT22;11950;51.230;4.012;2023-12-07T06:13:30;5.70;99.90
23544;DHT22;11950;51.230;4.012;2023-12-07T06:15:57;5.70;99.90
23544;DHT22;11950;51.230;4.012;2023-12-07T06:18:23;5.70;99.90
23544;DHT22;11950;51.230;4.012;2023-12-07T06:20:49;5.80;99.90
23544;DHT22;11950;51.230;4.012;2023-12-07T06:23:16;5.70;99.90
23544;DHT22;11950;51.230;4.012;2023-12-07T06:25:42;5.70;99.90
23544;DHT22;11950;51.230;4.012;2023-12-07T06:28:08;5.80;99.90
23544;DHT22;11950;51.230;4.012;2023-12-07T06:30:35;5.80;99.90
23544;DHT22;11950;51.230;4.012;2023-12-07T06:33:02;5.80;99.90
23544;DHT22;11950;51.230;4.012;2023-12-07T06:35:28;5.80;99.90
23544;DHT22;11950;51.230;4.012;2023-12-07T06:37:55;5.70;99.90
23544;DHT22;11950;51.230;4.012;2023-12-07T06:40:21;5.70;99.90
23544;DHT22;11950;51.230;4.012;2023-12-07T06:42:47;5.70;99.90
23544;DHT22;11950;51.230;4.012;2023-12-07T06:45:14;5.70;99.90
23544;DHT22;11950;51.230;4.012;2023-12-07T06:47:40;5.70;99.90
23544;DHT22;11950;51.230;4.012;2023-12-07T06:50:10;5.80;99.90
23544;DHT22;11950;51.230;4.012;2023-12-07T06:52:37;5.80;99.90
23544;DHT22;11950;51.230;4.012;2023-12-07T06:55:03;5.80;99.90
23544;DHT22;11950;51.230;4.012;2023-12-07T06:57:30;5.70;99.90
23544;DHT22;11950;51.230;4.012;2023-12-07T06:59:56;5.70;99.90
23544;DHT22;11950;51.230;4.012;2023-12-07T07:02:22;5.80;99.90
23544;DHT22;11950;51.230;4.012;2023-12-07T07:04:49;5.80;99.90
23544;DHT22;11950;51.230;4.012;2023-12-07T07:07:16;5.80;99.90
23544;DHT22;11950;51.230;4.012;2023-12-07T07:09:42;5.70;99.90
23544;DHT22;11950;51.230;4.012;2023-12-07T07:12:08;5.70;99.90
23544;DHT22;11950;51.230;4.012;2023-12-07T07:14:35;5.70;99.90
23544;DHT22;11950;51.230;4.012;2023-12-07T07:17:01;5.80;99.90
23544;DHT22;11950;51.230;4.012;2023-12-07T07:19:28;5.80;99.90
23544;DHT22;11950;51.230;4.012;2023-12-07T07:21:55;5.70;99.90
23544;DHT22;11950;51.230;4.012;2023-12-07T07:24:21;5.70;99.90
23544;DHT22;11950;51.230;4.012;2023-12-07T07:26:47;5.70;99.90
23544;DHT22;11950;51.230;4.012;2023-12-07T07:29:13;5.70;99.90
23544;DHT22;11950;51.230;4.012;2023-12-07T07:31:40;5.70;99.90
23544;DHT22;11950;51.230;4.012;2023-12-07T07:34:06;5.70;99.90
23544;DHT22;11950;51.230;4.012;2023-12-07T07:36:34;5.70;99.90
23544;DHT22;11950;51.230;4.012;2023-12-07T07:39:00;5.60;99.90
23544;DHT22;11950;51.230;4.012;2023-12-07T07:41:26;5.70;99.90
23544;DHT22;11950;51.230;4.012;2023-12-07T07:43:53;5.70;99.90
23544;DHT22;11950;51.230;4.012;2023-12-07T07:46:19;5.60;99.90
23544;DHT22;11950;51.230;4.012;2023-12-07T07:48:45;5.60;99.90
23544;DHT22;11950;51.230;4.012;2023-12-07T07:51:11;5.60;99.90
23544;DHT22;11950;51.230;4.012;2023-12-07T07:53:41;5.60;99.90
23544;DHT22;11950;51.230;4.012;2023-12-07T07:56:09;5.60;99.90
23544;DHT22;11950;51.230;4.012;2023-12-07T07:58:36;5.60;99.90
23544;DHT22;11950;51.230;4.012;2023-12-07T08:01:03;5.60;99.90
23544;DHT22;11950;51.230;4.012;2023-12-07T08:03:29;5.60;99.90
23544;DHT22;11950;51.230;4.012;2023-12-07T08:05:56;5.60;99.90
23544;DHT22;11950;51.230;4.012;2023-12-07T08:08:22;5.60;99.90
23544;DHT22;11950;51.230;4.012;2023-12-07T08:10:48;5.70;99.90
23544;DHT22;11950;51.230;4.012;2023-12-07T08:13:14;5.60;99.90
23544;DHT22;11950;51.230;4.012;2023-12-07T08:15:41;5.60;99.90
23544;DHT22;11950;51.230;4.012;2023-12-07T08:18:07;5.60;99.90
23544;DHT22;11950;51.230;4.012;2023-12-07T08:20:34;5.70;99.90
23544;DHT22;11950;51.230;4.012;2023-12-07T08:23:00;5.70;99.90
23544;DHT22;11950;51.230;4.012;2023-12-07T08:25:26;5.70;99.90
23544;DHT22;11950;51.230;4.012;2023-12-07T08:27:52;5.70;99.90
23544;DHT22;11950;51.230;4.012;2023-12-07T08:30:19;5.70;99.90
23544;DHT22;11950;51.230;4.012;2023-12-07T08:32:45;5.70;99.90
23544;DHT22;11950;51.230;4.012;2023-12-07T08:35:12;5.70;99.90
23544;DHT22;11950;51.230;4.012;2023-12-07T08:37:38;5.80;99.90
23544;DHT22;11950;51.230;4.012;2023-12-07T08:40:06;5.80;99.90
23544;DHT22;11950;51.230;4.012;2023-12-07T08:42:32;5.80;99.90
23544;DHT22;11950;51.230;4.012;2023-12-07T08:44:59;5.80;99.90
23544;DHT22;11950;51.230;4.012;2023-12-07T08:47:25;5.90;99.90
23544;DHT22;11950;51.230;4.012;2023-12-07T08:49:53;5.90;99.90
23544;DHT22;11950;51.230;4.012;2023-12-07T08:52:19;5.80;99.90
23544;DHT22;11950;51.230;4.012;2023-12-07T08:54:46;5.90;99.90
23544;DHT22;11950;51.230;4.012;2023-12-07T08:57:12;5.90;99.90
23544;DHT22;11950;51.230;4.012;2023-12-07T08:59:39;5.90;99.90
23544;DHT22;11950;51.230;4.012;2023-12-07T09:02:05;5.90;99.90
23544;DHT22;11950;51.230;4.012;2023-12-07T09:04:31;6.00;99.90
23544;DHT22;11950;51.230;4.012;2023-12-07T09:06:58;6.00;99.90
23544;DHT22;11950;51.230;4.012;2023-12-07T09:09:24;6.00;99.90
23544;DHT22;11950;51.230;4.012;2023-12-07T09:11:51;6.00;99.90
23544;DHT22;11950;51.230;4.012;2023-12-07T09:14:17;6.00;99.90
23544;DHT22;11950;51.230;4.012;2023-12-07T09:16:44;6.10;99.90
23544;DHT22;11950;51.230;4.012;2023-12-07T09:19:12;6.10;99.90
23544;DHT22;11950;51.230;4.012;2023-12-07T09:21:40;6.20;99.90
23544;DHT22;11950;51.230;4.012;2023-12-07T09:24:06;6.10;99.90
23544;DHT22;11950;51.230;4.012;2023-12-07T09:26:33;6.20;99.90
23544;DHT22;11950;51.230;4.012;2023-12-07T09:28:59;6.20;99.90
23544;DHT22;11950;51.230;4.012;2023-12-07T09:31:26;6.20;99.90
23544;DHT22;11950;51.230;4.012;2023-12-07T09:33:53;6.30;99.90
23544;DHT22;11950;51.230;4.012;2023-12-07T09:36:20;6.30;99.90
23544;DHT22;11950;51.230;4.012;2023-12-07T09:38:50;6.40;99.90
23544;DHT22;11950;51.230;4.012;2023-12-07T09:41:16;6.40;99.90
23544;DHT22;11950;51.230;4.012;2023-12-07T09:43:42;6.40;99.90
23544;DHT22;11950;51.230;4.012;2023-12-07T09:46:08;6.40;99.90
23544;DHT22;11950;51.230;4.012;2023-12-07T09:48:37;6.40;99.90
23544;DHT22;11950;51.230;4.012;2023-12-07T09:51:06;6.50;99.90
23544;DHT22;11950;51.230;4.012;2023-12-07T09:53:33;6.50;99.90
23544;DHT22;11950;51.230;4.012;2023-12-07T09:56:01;6.40;99.90
23544;DHT22;11950;51.230;4.012;2023-12-07T09:58:27;6.50;99.90
23544;DHT22;11950;51.230;4.012;2023-12-07T10:00:53;6.50;99.90
23544;DHT22;11950;51.230;4.012;2023-12-07T10:03:22;6.50;99.90
23544;DHT22;11950;51.230;4.012;2023-12-07T10:05:59;6.50;99.90
23544;DHT22;11950;51.230;4.012;2023-12-07T10:08:33;6.50;99.90
23544;DHT22;11950;51.230;4.012;2023-12-07T10:11:09;6.60;99.90
23544;DHT22;11950;51.230;4.012;2023-12-07T10:13:36;6.60;99.90
23544;DHT22;11950;51.230;4.012;2023-12-07T10:16:07;6.60;99.90
23544;DHT22;11950;51.230;4.012;2023-12-07T10:18:34;6.70;99.90
23544;DHT22;11950;51.230;4.012;2023-12-07T10:21:01;6.70;99.90
23544;DHT22;11950;51.230;4.012;2023-12-07T10:23:28;6.70;99.90
23544;DHT22;11950;51.230;4.012;2023-12-07T10:25:58;6.80;99.90
23544;DHT22;11950;51.230;4.012;2023-12-07T10:28:26;6.80;99.90
23544;DHT22;11950;51.230;4.012;2023-12-07T10:30:52;6.90;99.90
23544;DHT22;11950;51.230;4.012;2023-12-07T10:33:21;7.00;99.90
23544;DHT22;11950;51.230;4.012;2023-12-07T10:35:47;7.00;99.90
23544;DHT22;11950;51.230;4.012;2023-12-07T10:38:16;7.00;99.90
23544;DHT22;11950;51.230;4.012;2023-12-07T10:40:49;7.10;99.90
23544;DHT22;11950;51.230;4.012;2023-12-07T10:43:19;7.20;99.90
23544;DHT22;11950;51.230;4.012;2023-12-07T10:45:47;7.20;99.90
23544;DHT22;11950;51.230;4.012;2023-12-07T10:48:14;7.30;99.90
23544;DHT22;11950;51.230;4.012;2023-12-07T10:50:42;7.30;99.90
23544;DHT22;11950;51.230;4.012;2023-12-07T10:53:21;7.30;99.90
23544;DHT22;11950;51.230;4.012;2023-12-07T10:55:56;7.30;99.90
23544;DHT22;11950;51.230;4.012;2023-12-07T10:58:25;7.40;99.90
23544;DHT22;11950;51.230;4.012;2023-12-07T11:00:53;7.40;99.90
23544;DHT22;11950;51.230;4.012;2023-12-07T11:03:20;7.40;99.90
23544;DHT22;11950;51.230;4.012;2023-12-07T11:05:48;7.40;99.90
23544;DHT22;11950;51.230;4.012;2023-12-07T11:08:35;7.40;99.90
23544;DHT22;11950;51.230;4.012;2023-12-07T11:13:49;7.40;99.90
23544;DHT22;11950;51.230;4.012;2023-12-07T11:16:39;7.40;99.90
23544;DHT22;11950;51.230;4.012;2023-12-07T11:22:02;7.40;99.90
23544;DHT22;11950;51.230;4.012;2023-12-07T11:24:28;7.50;99.90
23544;DHT22;11950;51.230;4.012;2023-12-07T11:26:55;7.50;99.90
23544;DHT22;11950;51.230;4.012;2023-12-07T11:29:25;7.60;99.90
23544;DHT22;11950;51.230;4.012;2023-12-07T11:31:56;7.70;99.90
23544;DHT22;11950;51.230;4.012;2023-12-07T11:34:39;7.60;99.90
23544;DHT22;11950;51.230;4.012;2023-12-07T11:37:10;7.60;99.90
23544;DHT22;11950;51.230;4.012;2023-12-07T11:39:38;7.70;99.90
23544;DHT22;11950;51.230;4.012;2023-12-07T11:42:10;7.70;99.90
23544;DHT22;11950;51.230;4.012;2023-12-07T11:44:39;7.70;99.90
23544;DHT22;11950;51.230;4.012;2023-12-07T11:47:06;7.70;99.90
23544;DHT22;11950;51.230;4.012;2023-12-07T11:49:33;7.80;99.90
23544;DHT22;11950;51.230;4.012;2023-12-07T11:52:00;7.80;99.90
23544;DHT22;11950;51.230;4.012;2023-12-07T11:54:26;7.80;99.90
23544;DHT22;11950;51.230;4.012;2023-12-07T11:56:56;7.80;99.90
23544;DHT22;11950;51.230;4.012;2023-12-07T11:59:23;7.90;99.90
23544;DHT22;11950;51.230;4.012;2023-12-07T12:01:51;7.90;99.90
23544;DHT22;11950;51.230;4.012;2023-12-07T12:04:18;7.90;99.90
23544;DHT22;11950;51.230;4.012;2023-12-07T12:06:44;7.80;99.90
23544;DHT22;11950;51.230;4.012;2023-12-07T12:09:14;7.90;99.90
23544;DHT22;11950;51.230;4.012;2023-12-07T12:11:45;7.80;99.90
23544;DHT22;11950;51.230;4.012;2023-12-07T12:14:16;7.80;99.90
23544;DHT22;11950;51.230;4.012;2023-12-07T12:16:46;7.90;99.90
23544;DHT22;11950;51.230;4.012;2023-12-07T12:19:13;7.90;99.90
23544;DHT22;11950;51.230;4.012;2023-12-07T12:21:42;7.90;99.90
23544;DHT22;11950;51.230;4.012;2023-12-07T12:24:12;7.90;99.90
23544;DHT22;11950;51.230;4.012;2023-12-07T12:26:41;8.00;99.90
23544;DHT22;11950;51.230;4.012;2023-12-07T12:29:08;8.00;99.90
23544;DHT22;11950;51.230;4.012;2023-12-07T12:31:35;7.90;99.90
23544;DHT22;11950;51.230;4.012;2023-12-07T12:34:02;8.00;99.90
23544;DHT22;11950;51.230;4.012;2023-12-07T12:36:28;8.00;99.90
23544;DHT22;11950;51.230;4.012;2023-12-07T12:38:55;8.00;99.90
23544;DHT22;11950;51.230;4.012;2023-12-07T12:41:22;8.10;99.90
23544;DHT22;11950;51.230;4.012;2023-12-07T12:43:49;8.10;99.90
23544;DHT22;11950;51.230;4.012;2023-12-07T12:46:17;8.10;99.90
23544;DHT22;11950;51.230;4.012;2023-12-07T12:51:27;8.10;99.90
23544;DHT22;11950;51.230;4.012;2023-12-07T12:53:55;8.10;99.90
23544;DHT22;11950;51.230;4.012;2023-12-07T12:56:22;8.10;99.90
23544;DHT22;11950;51.230;4.012;2023-12-07T12:58:50;8.10;99.90
23544;DHT22;11950;51.230;4.012;2023-12-07T13:01:17;8.10;99.90
23544;DHT22;11950;51.230;4.012;2023-12-07T13:03:47;8.10;99.90
23544;DHT22;11950;51.230;4.012;2023-12-07T13:06:14;8.20;99.90
23544;DHT22;11950;51.230;4.012;2023-12-07T13:08:41;8.20;99.90
23544;DHT22;11950;51.230;4.012;2023-12-07T13:11:09;8.20;99.90
23544;DHT22;11950;51.230;4.012;2023-12-07T13:13:40;8.20;99.90
23544;DHT22;11950;51.230;4.012;2023-12-07T13:16:07;8.20;99.90
23544;DHT22;11950;51.230;4.012;2023-12-07T13:18:33;8.20;99.90
23544;DHT22;11950;51.230;4.012;2023-12-07T13:20:59;8.10;99.90
23544;DHT22;11950;51.230;4.012;2023-12-07T13:23:26;8.10;99.90
23544;DHT22;11950;51.230;4.012;2023-12-07T13:25:52;8.10;99.90
23544;DHT22;11950;51.230;4.012;2023-12-07T13:28:18;8.10;99.90
23544;DHT22;11950;51.230;4.012;2023-12-07T13:30:45;8.10;99.90
23544;DHT22;11950;51.230;4.012;2023-12-07T13:33:11;8.10;99.90
23544;DHT22;11950;51.230;4.012;2023-12-07T13:35:37;8.10;99.90
23544;DHT22;11950;51.230;4.012;2023-12-07T13:38:04;8.10;99.90
23544;DHT22;11950;51.230;4.012;2023-12-07T13:40:30;8.00;99.90
23544;DHT22;11950;51.230;4.012;2023-12-07T13:42:57;8.00;99.90
23544;DHT22;11950;51.230;4.012;2023-12-07T13:45:23;8.00;99.90
23544;DHT22;11950;51.230;4.012;2023-12-07T13:47:49;8.00;99.90
23544;DHT22;11950;51.230;4.012;2023-12-07T13:50:15;8.10;99.90
23544;DHT22;11950;51.230;4.012;2023-12-07T13:52:41;8.10;99.90
23544;DHT22;11950;51.230;4.012;2023-12-07T13:55:08;8.10;99.90
23544;DHT22;11950;51.230;4.012;2023-12-07T13:57:35;8.10;99.90
23544;DHT22;11950;51.230;4.012;2023-12-07T14:00:01;8.10;99.90
23544;DHT22;11950;51.230;4.012;2023-12-07T14:02:28;8.00;99.90
23544;DHT22;11950;51.230;4.012;2023-12-07T14:04:54;8.10;99.90
23544;DHT22;11950;51.230;4.012;2023-12-07T14:07:21;8.00;99.90
23544;DHT22;11950;51.230;4.012;2023-12-07T14:09:52;8.00;99.90
23544;DHT22;11950;51.230;4.012;2023-12-07T14:12:18;8.00;99.90
23544;DHT22;11950;51.230;4.012;2023-12-07T14:14:46;8.00;99.90
23544;DHT22;11950;51.230;4.012;2023-12-07T14:17:14;8.00;99.90
23544;DHT22;11950;51.230;4.012;2023-12-07T14:19:41;7.90;99.90
23544;DHT22;11950;51.230;4.012;2023-12-07T14:22:08;7.90;99.90
23544;DHT22;11950;51.230;4.012;2023-12-07T14:24:37;7.90;99.90
23544;DHT22;11950;51.230;4.012;2023-12-07T14:27:05;8.00;99.90
23544;DHT22;11950;51.230;4.012;2023-12-07T14:29:32;7.90;99.90
23544;DHT22;11950;51.230;4.012;2023-12-07T14:31:58;8.00;99.90
23544;DHT22;11950;51.230;4.012;2023-12-07T14:34:25;7.90;99.90
23544;DHT22;11950;51.230;4.012;2023-12-07T14:36:53;7.90;99.90
23544;DHT22;11950;51.230;4.012;2023-12-07T14:39:19;7.90;99.90
23544;DHT22;11950;51.230;4.012;2023-12-07T14:41:46;7.90;99.90
23544;DHT22;11950;51.230;4.012;2023-12-07T14:44:16;8.00;99.90
23544;DHT22;11950;51.230;4.012;2023-12-07T14:46:46;8.00;99.90
23544;DHT22;11950;51.230;4.012;2023-12-07T14:49:14;8.00;99.90
23544;DHT22;11950;51.230;4.012;2023-12-07T14:51:41;8.00;99.90
23544;DHT22;11950;51.230;4.012;2023-12-07T14:54:07;8.00;99.90
23544;DHT22;11950;51.230;4.012;2023-12-07T14:56:36;7.90;99.90
23544;DHT22;11950;51.230;4.012;2023-12-07T14:59:02;8.00;99.90
23544;DHT22;11950;51.230;4.012;2023-12-07T15:01:29;7.90;99.90
23544;DHT22;11950;51.230;4.012;2023-12-07T15:03:56;7.90;99.90
23544;DHT22;11950;51.230;4.012;2023-12-07T15:06:22;7.80;99.90
23544;DHT22;11950;51.230;4.012;2023-12-07T15:08:50;7.80;99.90
23544;DHT22;11950;51.230;4.012;2023-12-07T15:11:17;7.80;99.90
23544;DHT22;11950;51.230;4.012;2023-12-07T15:13:43;7.80;99.90
23544;DHT22;11950;51.230;4.012;2023-12-07T15:16:09;7.80;99.90
23544;DHT22;11950;51.230;4.012;2023-12-07T15:18:36;7.70;99.90
23544;DHT22;11950;51.230;4.012;2023-12-07T15:21:03;7.70;99.90
23544;DHT22;11950;51.230;4.012;2023-12-07T15:23:30;7.70;99.90
23544;DHT22;11950;51.230;4.012;2023-12-07T15:25:58;7.80;99.90
23544;DHT22;11950;51.230;4.012;2023-12-07T15:28:24;7.70;99.90
23544;DHT22;11950;51.230;4.012;2023-12-07T15:30:50;7.70;99.90
23544;DHT22;11950;51.230;4.012;2023-12-07T15:33:17;7.60;99.90
23544;DHT22;11950;51.230;4.012;2023-12-07T15:35:43;7.60;99.90
23544;DHT22;11950;51.230;4.012;2023-12-07T15:38:09;7.60;99.90
23544;DHT22;11950;51.230;4.012;2023-12-07T15:40:39;7.60;99.90
23544;DHT22;11950;51.230;4.012;2023-12-07T15:43:05;7.60;99.90
23544;DHT22;11950;51.230;4.012;2023-12-07T15:45:31;7.60;99.90
23544;DHT22;11950;51.230;4.012;2023-12-07T15:47:57;7.60;99.90
23544;DHT22;11950;51.230;4.012;2023-12-07T15:50:24;7.70;99.90
23544;DHT22;11950;51.230;4.012;2023-12-07T15:52:50;7.60;99.90
23544;DHT22;11950;51.230;4.012;2023-12-07T15:55:17;7.60;99.90